Time;durP1;ratioP1;P1;durP2;ratioP2;P2;SDS_P1;SDS_P2;PMS_P1;PMS_P2;Temp;Humidity;BMP_temperature;BMP_pressure;BME280_temperature;BME280_humidity;BME280_pressure;Samples;Min_cycle;Max_cycle;Signal;HPM_P1;HPM_P2
2022/10/16 00:01:36;;;;;;;37.20;16.38;;;;;;;;;;5083469;28;20063;-47
2022/10/16 00:04:12;;;;;;;28.17;13.68;;;;;;;;;;5065934;28;20110;-47
2022/10/16 00:06:39;;;;;;;25.05;13.10;;;;;;;;;;5060991;28;20048;-47
2022/10/16 00:09:06;;;;;;;29.15;14.85;;;;;;;;;;5064887;28;20370;-47
2022/10/16 00:11:42;;;;;;;30.55;14.48;;;;;;;;;;5066920;28;20057;-47
2022/10/16 00:14:18;;;;;;;29.40;14.27;;;;;;;;;;5074078;28;20053;-47
2022/10/16 00:16:48;;;;;;;26.55;14.63;;;;;;;;;;5067476;28;20052;-47
2022/10/16 00:19:28;;;;;;;29.98;14.98;;;;;;;;;;5062445;28;20049;-47
2022/10/16 00:21:58;;;;;;;28.50;14.43;;;;;;;;;;5070833;28;20094;-47
2022/10/16 00:24:28;;;;;;;31.83;16.50;;;;;;;;;;5065781;28;20049;-47
2022/10/16 00:26:56;;;;;;;29.27;14.63;;;;;;;;;;5056046;28;20126;-49
2022/10/16 00:29:24;;;;;;;32.78;16.35;;;;;;;;;;5075167;28;20055;-47
2022/10/16 00:31:53;;;;;;;33.97;16.10;;;;;;;;;;5087346;28;20055;-49
2022/10/16 00:34:28;;;;;;;30.00;15.20;;;;;;;;;;5067951;28;20044;-48
2022/10/16 00:36:59;;;;;;;35.35;17.40;;;;;;;;;;5081302;28;20059;-47
2022/10/16 00:39:29;;;;;;;33.08;17.17;;;;;;;;;;5074893;28;20048;-46
2022/10/16 00:41:55;;;;;;;32.10;15.15;;;;;;;;;;5074558;28;20137;-49
2022/10/16 00:44:53;;;;;;;30.73;15.85;;;;;;;;;;5071071;28;20453;-50
2022/10/16 00:47:23;;;;;;;31.92;15.75;;;;;;;;;;5067124;28;20056;-50
2022/10/16 00:50:11;;;;;;;29.45;16.02;;;;;;;;;;5067477;28;20064;-48
2022/10/16 00:52:42;;;;;;;32.78;16.50;;;;;;;;;;5055432;28;20062;-48
2022/10/16 00:55:12;;;;;;;34.22;16.40;;;;;;;;;;5062524;28;20048;-47
2022/10/16 00:57:40;;;;;;;28.60;14.82;;;;;;;;;;5071517;28;20140;-49
2022/10/16 01:00:16;;;;;;;33.92;16.05;;;;;;;;;;5074443;28;20052;-50
2022/10/16 01:02:45;;;;;;;32.00;15.57;;;;;;;;;;5060259;28;20053;-47
2022/10/16 01:05:22;;;;;;;33.10;15.48;;;;;;;;;;5074016;28;20083;-51
2022/10/16 01:07:59;;;;;;;32.38;16.15;;;;;;;;;;5074051;28;20053;-48
2022/10/16 01:10:34;;;;;;;37.67;16.40;;;;;;;;;;5074503;28;20045;-50
2022/10/16 01:13:06;;;;;;;35.65;15.85;;;;;;;;;;5073485;28;20088;-49
2022/10/16 01:15:37;;;;;;;30.02;15.63;;;;;;;;;;5074521;28;20052;-52
2022/10/16 01:18:09;;;;;;;29.33;16.13;;;;;;;;;;5072057;28;20053;-47
2022/10/16 01:20:40;;;;;;;32.92;15.77;;;;;;;;;;5074988;28;20052;-48
2022/10/16 01:23:15;;;;;;;29.42;15.82;;;;;;;;;;5067872;28;20059;-48
2022/10/16 01:26:02;;;;;;;27.05;13.80;;;;;;;;;;5053877;28;20048;-49
2022/10/16 01:28:38;;;;;;;24.85;14.10;;;;;;;;;;5056760;28;20076;-52
2022/10/16 01:31:05;;;;;;;;;;;;;;;;;;5063087;28;20612;-52
2022/10/16 01:33:36;;;;;;;26.35;14.25;;;;;;;;;;5077971;28;19924;-48
2022/10/16 01:36:08;;;;;;;29.98;14.43;;;;;;;;;;5089952;28;20063;-48
2022/10/16 01:38:39;;;;;;;27.23;14.10;;;;;;;;;;5092661;28;20048;-48
2022/10/16 01:41:12;;;;;;;26.75;14.10;;;;;;;;;;5065724;28;20061;-50
2022/10/16 01:43:43;;;;;;;28.95;14.57;;;;;;;;;;5090971;28;20143;-48
2022/10/16 01:46:12;;;;;;;28.55;14.45;;;;;;;;;;5075793;28;20532;-49
2022/10/16 01:48:41;;;;;;;27.27;13.07;;;;;;;;;;5073631;28;20052;-48
2022/10/16 01:51:17;;;;;;;25.58;13.73;;;;;;;;;;5084826;28;20469;-49
2022/10/16 01:53:55;;;;;;;27.02;14.02;;;;;;;;;;5076844;28;20059;-48
2022/10/16 01:56:26;;;;;;;24.83;14.50;;;;;;;;;;5079045;28;20080;-50
2022/10/16 01:58:59;;;;;;;25.02;13.88;;;;;;;;;;5080324;28;20063;-50
2022/10/16 02:01:29;;;;;;;21.65;12.32;;;;;;;;;;5087069;28;20145;-50
2022/10/16 02:04:06;;;;;;;20.85;12.57;;;;;;;;;;5067020;28;20079;-49
2022/10/16 02:06:47;;;;;;;21.88;12.13;;;;;;;;;;5092379;28;20452;-50
2022/10/16 02:09:16;;;;;;;23.80;12.30;;;;;;;;;;5052820;28;20129;-47
2022/10/16 02:11:46;;;;;;;24.95;12.90;;;;;;;;;;5066874;28;20088;-49
2022/10/16 02:14:24;;;;;;;25.83;11.80;;;;;;;;;;5070417;28;20048;-47
2022/10/16 02:16:52;;;;;;;25.35;12.65;;;;;;;;;;5072915;28;20055;-47
2022/10/16 02:19:25;;;;;;;19.60;11.52;;;;;;;;;;5065758;28;20056;-47
2022/10/16 02:21:54;;;;;;;19.20;9.45;;;;;;;;;;5066389;28;20045;-50
2022/10/16 02:24:29;;;;;;;18.13;10.45;;;;;;;;;;5067475;28;20378;-47
2022/10/16 02:26:59;;;;;;;22.08;11.57;;;;;;;;;;5079806;28;20101;-47
2022/10/16 02:29:29;;;;;;;19.33;11.93;;;;;;;;;;5065131;28;20045;-46
2022/10/16 02:32:10;;;;;;;18.95;10.00;;;;;;;;;;5062662;28;20053;-46
2022/10/16 02:34:41;;;;;;;19.02;11.52;;;;;;;;;;5060662;28;20389;-47
2022/10/16 02:37:10;;;;;;;20.98;11.40;;;;;;;;;;5066251;28;20045;-47
2022/10/16 02:39:47;;;;;;;16.80;9.98;;;;;;;;;;5072660;28;20052;-47
2022/10/16 02:42:14;;;;;;;17.92;10.57;;;;;;;;;;5085656;28;20047;-46
2022/10/16 02:44:56;;;;;;;22.80;11.07;;;;;;;;;;5072946;28;20056;-46
2022/10/16 02:47:24;;;;;;;21.33;10.90;;;;;;;;;;5072875;28;20051;-47
2022/10/16 02:49:54;;;;;;;21.05;10.95;;;;;;;;;;5071831;28;20060;-47
2022/10/16 02:52:24;;;;;;;20.02;11.35;;;;;;;;;;5072648;28;20099;-47
2022/10/16 02:54:51;;;;;;;18.77;11.27;;;;;;;;;;5071873;28;20048;-49
2022/10/16 02:57:20;;;;;;;19.35;10.40;;;;;;;;;;5072620;28;20048;-47
2022/10/16 02:59:50;;;;;;;18.35;10.70;;;;;;;;;;5071629;28;20524;-47
2022/10/16 03:02:18;;;;;;;19.02;9.93;;;;;;;;;;5072706;28;20055;-47
2022/10/16 03:04:48;;;;;;;17.88;11.07;;;;;;;;;;5071654;28;20053;-47
2022/10/16 03:07:18;;;;;;;20.00;10.70;;;;;;;;;;5072850;28;20044;-49
2022/10/16 03:09:48;;;;;;;16.73;9.68;;;;;;;;;;5073503;28;20049;-50
2022/10/16 03:12:18;;;;;;;17.70;10.23;;;;;;;;;;5083662;28;20406;-48
2022/10/16 03:14:59;;;;;;;17.75;10.10;;;;;;;;;;5075749;28;20057;-49
2022/10/16 03:17:29;;;;;;;17.67;10.55;;;;;;;;;;5072829;28;20045;-49
2022/10/16 03:19:59;;;;;;;16.23;9.95;;;;;;;;;;5072370;28;20056;-49
2022/10/16 03:22:26;;;;;;;17.58;9.90;;;;;;;;;;5068601;28;20045;-51
2022/10/16 03:25:02;;;;;;;18.38;10.23;;;;;;;;;;5082749;28;20048;-49
2022/10/16 03:27:31;;;;;;;16.38;10.23;;;;;;;;;;5073692;28;20376;-48
2022/10/16 03:30:03;;;;;;;18.23;10.20;;;;;;;;;;5072321;28;20048;-49
2022/10/16 03:32:33;;;;;;;18.10;10.15;;;;;;;;;;5074238;28;20048;-49
2022/10/16 03:34:59;;;;;;;16.58;9.77;;;;;;;;;;5075106;28;20060;-49
2022/10/16 03:37:29;;;;;;;17.63;10.00;;;;;;;;;;5073120;28;20388;-51
2022/10/16 03:39:56;;;;;;;12.75;7.95;;;;;;;;;;5084157;28;20049;-48
2022/10/16 03:42:24;;;;;;;16.02;8.77;;;;;;;;;;5071290;28;20246;-48
2022/10/16 03:44:53;;;;;;;16.52;9.02;;;;;;;;;;5070744;28;20053;-48
2022/10/16 03:47:23;;;;;;;19.48;10.55;;;;;;;;;;5071779;28;20060;-47
2022/10/16 03:49:53;;;;;;;15.40;9.90;;;;;;;;;;5071385;28;20053;-49
2022/10/16 03:52:22;;;;;;;18.30;9.13;;;;;;;;;;5071878;28;20057;-49
2022/10/16 03:54:50;;;;;;;17.48;10.55;;;;;;;;;;5075798;28;20055;-48
2022/10/16 03:57:20;;;;;;;16.77;9.82;;;;;;;;;;5092481;28;20361;-49
2022/10/16 03:59:50;;;;;;;14.27;8.70;;;;;;;;;;5069949;28;20405;-49
2022/10/16 04:02:17;;;;;;;15.90;8.98;;;;;;;;;;5095405;28;20149;-48
2022/10/16 04:04:59;;;;;;;15.20;8.90;;;;;;;;;;5095756;28;20066;-48
2022/10/16 04:07:28;;;;;;;15.88;8.85;;;;;;;;;;5085590;28;20056;-47
2022/10/16 04:09:57;;;;;;;17.58;9.38;;;;;;;;;;5092287;28;20144;-48
2022/10/16 04:12:25;;;;;;;16.08;9.32;;;;;;;;;;5094433;28;20048;-49
2022/10/16 04:14:55;;;;;;;16.65;10.32;;;;;;;;;;5079403;28;20075;-48
2022/10/16 04:17:22;;;;;;;17.00;9.05;;;;;;;;;;5067261;28;20484;-48
2022/10/16 04:19:58;;;;;;;17.67;9.35;;;;;;;;;;5055782;28;20053;-48
2022/10/16 04:22:28;;;;;;;16.88;9.68;;;;;;;;;;5072366;28;20044;-48
2022/10/16 04:24:56;;;;;;;18.42;10.25;;;;;;;;;;5064854;28;20045;-48
2022/10/16 04:27:24;;;;;;;16.98;10.40;;;;;;;;;;5061746;28;20462;-48
2022/10/16 04:29:54;;;;;;;16.25;8.52;;;;;;;;;;5063331;28;20347;-51
2022/10/16 04:32:22;;;;;;;15.43;9.65;;;;;;;;;;5062716;28;20102;-48
2022/10/16 04:34:55;;;;;;;20.60;10.52;;;;;;;;;;5070401;28;20048;-48
2022/10/16 04:37:24;;;;;;;17.45;10.45;;;;;;;;;;5074070;28;20044;-48
2022/10/16 04:39:52;;;;;;;16.58;9.75;;;;;;;;;;5067676;28;20060;-48
2022/10/16 04:42:19;;;;;;;19.98;11.13;;;;;;;;;;5061321;28;20123;-48
2022/10/16 04:44:49;;;;;;;17.42;10.68;;;;;;;;;;5064243;28;20076;-48
2022/10/16 04:47:17;;;;;;;17.55;10.85;;;;;;;;;;5063654;28;20136;-50
2022/10/16 04:49:43;;;;;;;18.17;10.23;;;;;;;;;;5059606;28;20072;-47
2022/10/16 04:52:13;;;;;;;20.73;10.93;;;;;;;;;;5058495;28;20060;-48
2022/10/16 04:54:42;;;;;;;20.73;10.73;;;;;;;;;;5068258;28;20052;-48
2022/10/16 04:57:11;;;;;;;19.35;12.18;;;;;;;;;;5058359;28;20059;-48
2022/10/16 04:59:40;;;;;;;19.98;10.93;;;;;;;;;;5066730;28;20706;-49
2022/10/16 05:02:09;;;;;;;19.65;11.00;;;;;;;;;;5073905;28;20707;-49
2022/10/16 05:04:37;;;;;;;21.15;12.02;;;;;;;;;;5065259;28;20044;-48
2022/10/16 05:07:04;;;;;;;20.88;12.15;;;;;;;;;;5068092;28;20071;-48
2022/10/16 05:09:40;;;;;;;26.30;13.00;;;;;;;;;;5062785;28;20101;-48
2022/10/16 05:12:16;;;;;;;22.33;11.43;;;;;;;;;;5060029;28;20045;-48
2022/10/16 05:14:46;;;;;;;24.75;13.25;;;;;;;;;;5071688;28;20384;-49
2022/10/16 05:17:16;;;;;;;23.90;13.05;;;;;;;;;;5068794;28;20056;-48
2022/10/16 05:19:44;;;;;;;20.83;12.57;;;;;;;;;;5062503;28;20048;-48
2022/10/16 05:22:11;;;;;;;24.30;12.82;;;;;;;;;;5074096;28;20106;-48
2022/10/16 05:24:39;;;;;;;24.17;14.13;;;;;;;;;;5081966;28;20078;-48
2022/10/16 05:27:09;;;;;;;27.15;14.98;;;;;;;;;;5093932;28;20052;-48
2022/10/16 05:29:35;;;;;;;26.52;14.70;;;;;;;;;;5091728;28;20079;-48
2022/10/16 05:32:03;;;;;;;23.30;14.25;;;;;;;;;;5071534;28;20056;-50
2022/10/16 05:34:33;;;;;;;26.30;15.32;;;;;;;;;;5085335;28;20063;-51
2022/10/16 05:37:01;;;;;;;30.17;16.08;;;;;;;;;;5091575;28;20432;-49
2022/10/16 05:39:30;;;;;;;31.00;16.17;;;;;;;;;;5063531;28;20074;-48
2022/10/16 05:42:00;;;;;;;29.40;15.18;;;;;;;;;;5093925;28;20043;-48
2022/10/16 05:44:42;;;;;;;26.75;15.07;;;;;;;;;;5058975;28;20041;-48
2022/10/16 05:47:13;;;;;;;30.33;15.77;;;;;;;;;;5064387;28;20048;-48
2022/10/16 05:49:42;;;;;;;31.52;16.10;;;;;;;;;;5055395;28;20053;-48
2022/10/16 05:52:12;;;;;;;28.70;16.42;;;;;;;;;;5053687;28;20053;-48
2022/10/16 05:54:42;;;;;;;28.83;16.25;;;;;;;;;;5056527;28;20126;-48
2022/10/16 05:57:12;;;;;;;30.48;17.67;;;;;;;;;;5053542;28;20049;-49
2022/10/16 05:59:49;;;;;;;30.67;16.38;;;;;;;;;;5060063;28;20060;-48
2022/10/16 06:02:25;;;;;;;31.30;16.55;;;;;;;;;;5059080;28;20488;-48
2022/10/16 06:04:55;;;;;;;30.67;17.42;;;;;;;;;;5073019;28;20152;-49
2022/10/16 06:07:23;;;;;;;29.10;16.98;;;;;;;;;;5073193;28;20067;-48
2022/10/16 06:09:53;;;;;;;28.83;16.58;;;;;;;;;;5058855;28;20060;-48
2022/10/16 06:12:22;;;;;;;32.08;16.92;;;;;;;;;;5072820;28;20044;-47
2022/10/16 06:15:01;;;;;;;30.75;17.58;;;;;;;;;;5071619;28;20059;-48
2022/10/16 06:17:31;;;;;;;30.70;16.55;;;;;;;;;;5061460;28;20508;-48
2022/10/16 06:19:58;;;;;;;27.95;15.48;;;;;;;;;;5059424;28;20080;-48
2022/10/16 06:22:27;;;;;;;28.48;16.17;;;;;;;;;;5073868;28;20052;-47
2022/10/16 06:24:54;;;;;;;29.08;15.98;;;;;;;;;;5061760;28;20491;-48
2022/10/16 06:27:22;;;;;;;28.55;17.02;;;;;;;;;;5086507;28;20052;-47
2022/10/16 06:29:49;;;;;;;32.22;17.63;;;;;;;;;;5088923;28;20045;-48
2022/10/16 06:32:24;;;;;;;25.90;16.25;;;;;;;;;;5073497;28;20076;-48
2022/10/16 06:34:54;;;;;;;30.77;17.23;;;;;;;;;;5068442;28;20053;-49
2022/10/16 06:37:21;;;;;;;32.55;17.00;;;;;;;;;;5082560;28;20131;-49
2022/10/16 06:39:52;;;;;;;29.83;17.42;;;;;;;;;;5093173;28;20059;-49
2022/10/16 06:42:22;;;;;;;29.27;15.95;;;;;;;;;;5092597;28;20052;-49
2022/10/16 06:44:50;;;;;;;27.23;16.00;;;;;;;;;;5086310;28;20143;-49
2022/10/16 06:47:34;;;;;;;33.22;17.80;;;;;;;;;;5084831;28;20051;-49
2022/10/16 06:50:03;;;;;;;33.28;16.67;;;;;;;;;;5075223;28;20045;-51
2022/10/16 06:52:33;;;;;;;24.85;15.30;;;;;;;;;;5061272;28;20052;-48
2022/10/16 06:55:02;;;;;;;26.92;14.85;;;;;;;;;;5052465;28;20402;-48
2022/10/16 06:57:30;;;;;;;31.63;16.70;;;;;;;;;;5053024;28;20098;-48
2022/10/16 06:59:57;;;;;;;29.55;15.77;;;;;;;;;;5062895;28;20107;-48
2022/10/16 07:02:26;;;;;;;29.40;16.98;;;;;;;;;;5070104;28;20052;-48
2022/10/16 07:04:56;;;;;;;28.98;15.68;;;;;;;;;;5062628;28;20044;-48
2022/10/16 07:07:27;;;;;;;28.08;16.35;;;;;;;;;;5062738;28;20102;-50
2022/10/16 07:09:57;;;;;;;30.70;17.08;;;;;;;;;;5062013;28;20084;-52
2022/10/16 07:12:27;;;;;;;27.98;15.10;;;;;;;;;;5058066;28;20114;-49
2022/10/16 07:14:56;;;;;;;27.35;15.70;;;;;;;;;;5067760;28;20517;-49
2022/10/16 07:17:22;;;;;;;28.23;15.70;;;;;;;;;;5060571;28;20050;-48
2022/10/16 07:19:59;;;;;;;22.38;14.05;;;;;;;;;;5067037;28;20053;-48
2022/10/16 07:22:25;;;;;;;24.20;14.10;;;;;;;;;;5072552;28;20445;-48
2022/10/16 07:24:54;;;;;;;26.65;16.05;;;;;;;;;;5067504;28;20056;-47
2022/10/16 07:27:23;;;;;;;24.48;13.88;;;;;;;;;;5069078;28;20047;-47
2022/10/16 07:29:53;;;;;;;26.20;15.30;;;;;;;;;;5067486;28;20056;-51
2022/10/16 07:32:25;;;;;;;22.98;14.52;;;;;;;;;;5069856;28;20059;-49
2022/10/16 07:34:55;;;;;;;27.92;15.48;;;;;;;;;;5069303;28;20471;-50
2022/10/16 07:37:25;;;;;;;25.50;14.95;;;;;;;;;;5073606;28;20055;-51
2022/10/16 07:39:55;;;;;;;22.63;14.10;;;;;;;;;;5080697;28;20539;-48
2022/10/16 07:42:22;;;;;;;28.35;15.27;;;;;;;;;;5067411;28;20098;-49
2022/10/16 07:47:33;;;;;;;26.20;14.90;;;;;;;;;;5073257;28;20063;-48
2022/10/16 07:50:09;;;;;;;25.63;14.43;;;;;;;;;;5074962;28;20118;-49
2022/10/16 07:52:39;;;;;;;25.35;13.80;;;;;;;;;;5074299;28;20567;-48
2022/10/16 07:55:07;;;;;;;25.83;13.95;;;;;;;;;;5063401;28;20096;-49
2022/10/16 07:57:37;;;;;;;21.30;12.25;;;;;;;;;;5072737;28;20048;-48
2022/10/16 08:00:08;;;;;;;25.95;13.15;;;;;;;;;;5073112;28;20098;-47
2022/10/16 08:02:37;;;;;;;19.75;12.95;;;;;;;;;;5076428;28;20052;-48
2022/10/16 08:05:21;;;;;;;23.23;13.85;;;;;;;;;;5070346;28;20372;-48
2022/10/16 08:07:56;;;;;;;23.15;13.35;;;;;;;;;;5065437;28;20049;-48
2022/10/16 08:10:33;;;;;;;29.25;15.00;;;;;;;;;;5075147;28;20048;-46
2022/10/16 08:13:02;;;;;;;28.40;16.02;;;;;;;;;;5068960;28;20366;-45
2022/10/16 08:15:32;;;;;;;27.08;14.90;;;;;;;;;;5073109;28;20127;-46
2022/10/16 08:18:02;;;;;;;26.05;14.65;;;;;;;;;;5074788;28;20060;-45
2022/10/16 08:20:44;;;;;;;25.15;15.30;;;;;;;;;;5065529;28;20123;-46
2022/10/16 08:23:13;;;;;;;26.02;15.02;;;;;;;;;;5075532;28;20049;-45
2022/10/16 08:25:43;;;;;;;28.88;15.63;;;;;;;;;;5088821;28;20051;-46
2022/10/16 08:28:13;;;;;;;25.35;14.38;;;;;;;;;;5084016;28;20102;-47
2022/10/16 08:30:43;;;;;;;20.40;12.07;;;;;;;;;;5078223;28;20076;-46
2022/10/16 08:33:10;;;;;;;24.38;14.82;;;;;;;;;;5081033;28;20052;-46
2022/10/16 08:35:54;;;;;;;25.55;14.82;;;;;;;;;;5074736;28;20055;-47
2022/10/16 08:38:24;;;;;;;23.77;13.73;;;;;;;;;;5074715;28;20114;-47
2022/10/16 08:40:53;;;;;;;23.52;13.80;;;;;;;;;;5073976;28;20056;-47
2022/10/16 08:43:34;;;;;;;25.90;14.88;;;;;;;;;;5082966;28;20048;-47
2022/10/16 08:46:19;;;;;;;25.02;14.27;;;;;;;;;;5077631;28;20388;-48
2022/10/16 08:48:49;;;;;;;26.27;14.32;;;;;;;;;;5070111;28;20453;-45
2022/10/16 08:51:34;;;;;;;21.65;13.98;;;;;;;;;;5056574;28;20056;-46
2022/10/16 08:54:05;;;;;;;24.30;13.77;;;;;;;;;;5056634;28;20194;-47
2022/10/16 08:56:35;;;;;;;25.10;14.63;;;;;;;;;;5069537;28;20049;-47
2022/10/16 08:59:12;;;;;;;24.23;13.95;;;;;;;;;;5059657;28;20045;-47
2022/10/16 09:01:42;;;;;;;21.75;12.82;;;;;;;;;;5058857;28;20037;-49
2022/10/16 09:04:21;;;;;;;21.42;12.93;;;;;;;;;;5063374;28;20117;-50
2022/10/16 09:06:54;;;;;;;26.33;12.77;;;;;;;;;;5061590;28;20053;-49
2022/10/16 09:09:33;;;;;;;23.15;12.90;;;;;;;;;;5073991;28;20048;-58
2022/10/16 09:12:03;;;;;;;23.88;14.02;;;;;;;;;;5058611;28;20049;-50
2022/10/16 09:14:49;;;;;;;22.92;13.13;;;;;;;;;;5066761;28;20059;-45
2022/10/16 09:17:26;;;;;;;23.23;14.18;;;;;;;;;;5057783;28;20048;-50
2022/10/16 09:19:59;;;;;;;22.80;13.35;;;;;;;;;;5068396;28;20127;-46
2022/10/16 09:22:36;;;;;;;26.08;12.27;;;;;;;;;;5074614;28;20048;-47
2022/10/16 09:25:12;;;;;;;24.40;12.65;;;;;;;;;;5085391;28;20048;-48
2022/10/16 09:27:42;;;;;;;22.65;12.70;;;;;;;;;;5074660;28;20055;-47
2022/10/16 09:30:12;;;;;;;23.58;13.23;;;;;;;;;;5073649;28;20500;-46
2022/10/16 09:32:48;;;;;;;25.58;12.32;;;;;;;;;;5062691;28;20066;-46
2022/10/16 09:35:24;;;;;;;25.70;13.73;;;;;;;;;;5066610;28;20056;-48
2022/10/16 09:38:02;;;;;;;20.77;12.57;;;;;;;;;;5072990;28;20044;-47
2022/10/16 09:40:32;;;;;;;27.08;14.45;;;;;;;;;;5073631;28;20114;-48
2022/10/16 09:43:05;;;;;;;23.92;14.63;;;;;;;;;;5070802;28;20044;-45
2022/10/16 09:45:32;;;;;;;21.88;13.00;;;;;;;;;;5073408;28;20055;-46
2022/10/16 09:48:04;;;;;;;19.92;12.20;;;;;;;;;;5072065;28;20350;-49
2022/10/16 09:50:34;;;;;;;19.65;10.45;;;;;;;;;;5070403;28;20040;-48
2022/10/16 09:53:07;;;;;;;23.13;12.48;;;;;;;;;;5066649;28;20053;-46
2022/10/16 09:55:50;;;;;;;22.05;11.45;;;;;;;;;;5070143;28;20070;-47
2022/10/16 09:58:20;;;;;;;19.70;11.02;;;;;;;;;;5068378;28;20101;-46
2022/10/16 10:00:57;;;;;;;19.70;11.57;;;;;;;;;;5070100;28;20067;-46
2022/10/16 10:03:35;;;;;;;19.92;11.80;;;;;;;;;;5069637;28;20045;-46
2022/10/16 10:06:09;;;;;;;18.45;11.25;;;;;;;;;;5070014;28;20127;-46
2022/10/16 10:08:39;;;;;;;17.05;9.77;;;;;;;;;;5072214;28;20139;-47
2022/10/16 10:11:15;;;;;;;18.08;10.48;;;;;;;;;;5077350;28;20469;-46
2022/10/16 10:13:43;;;;;;;17.88;11.40;;;;;;;;;;5066322;28;20053;-46
2022/10/16 10:16:13;;;;;;;18.98;10.75;;;;;;;;;;5072828;28;20338;-47
2022/10/16 10:18:39;;;;;;;18.80;10.70;;;;;;;;;;5072877;28;20057;-45
2022/10/16 10:21:18;;;;;;;18.10;11.50;;;;;;;;;;5071676;28;20056;-52
2022/10/16 10:23:58;;;;;;;25.35;13.25;;;;;;;;;;5070632;28;20049;-53
2022/10/16 10:26:29;;;;;;;22.45;12.85;;;;;;;;;;5093273;28;20066;-54
2022/10/16 10:29:03;;;;;;;18.38;11.93;;;;;;;;;;5064340;28;20060;-53
2022/10/16 10:31:40;;;;;;;19.55;11.82;;;;;;;;;;5081052;28;20060;-50
2022/10/16 10:34:21;;;;;;;21.77;12.30;;;;;;;;;;5072140;28;20052;-50
2022/10/16 10:36:53;;;;;;;20.20;11.85;;;;;;;;;;5072870;28;20076;-51
2022/10/16 10:39:24;;;;;;;20.38;11.15;;;;;;;;;;5085905;28;20040;-51
2022/10/16 10:42:17;;;;;;;20.88;11.00;;;;;;;;;;5062573;28;20625;-54
2022/10/16 10:44:54;;;;;;;20.92;11.65;;;;;;;;;;5057198;28;20048;-54
2022/10/16 10:47:30;;;;;;;24.92;12.57;;;;;;;;;;5059084;28;20525;-52
2022/10/16 10:50:03;;;;;;;23.50;13.10;;;;;;;;;;5062626;28;20053;-53
2022/10/16 10:52:41;;;;;;;19.80;11.88;;;;;;;;;;5054680;28;20115;-50
2022/10/16 10:55:25;;;;;;;19.60;10.90;;;;;;;;;;5052315;28;20179;-53
2022/10/16 10:58:10;;;;;;;20.55;12.48;;;;;;;;;;5080408;28;20088;-53
2022/10/16 11:00:45;;;;;;;21.38;11.27;;;;;;;;;;5067813;28;20048;-52
2022/10/16 11:03:21;;;;;;;21.27;11.80;;;;;;;;;;5067358;28;20481;-50
2022/10/16 11:05:58;;;;;;;18.23;11.32;;;;;;;;;;5050724;28;20620;-49
2022/10/16 11:08:27;;;;;;;16.30;10.25;;;;;;;;;;5054737;28;20049;-50
2022/10/16 11:10:56;;;;;;;21.60;11.45;;;;;;;;;;5071586;28;20048;-50
2022/10/16 11:13:28;;;;;;;20.23;11.82;;;;;;;;;;5078931;28;20048;-52
2022/10/16 11:15:57;;;;;;;18.63;11.05;;;;;;;;;;5080607;28;20051;-50
2022/10/16 11:18:35;;;;;;;19.08;12.05;;;;;;;;;;5074148;28;20055;-54
2022/10/16 11:21:05;;;;;;;18.20;11.85;;;;;;;;;;5073864;28;20135;-50
2022/10/16 11:23:41;;;;;;;21.67;12.80;;;;;;;;;;5076256;28;20045;-50
2022/10/16 11:26:13;;;;;;;19.25;11.95;;;;;;;;;;5075480;28;20396;-50
2022/10/16 11:28:43;;;;;;;19.15;11.68;;;;;;;;;;5077495;28;20124;-52
2022/10/16 11:31:29;;;;;;;17.85;11.63;;;;;;;;;;5076201;28;20056;-51
2022/10/16 11:34:00;;;;;;;16.33;10.98;;;;;;;;;;5075394;28;20048;-53
2022/10/16 11:36:32;;;;;;;17.00;11.43;;;;;;;;;;5065613;28;20381;-52
2022/10/16 11:39:01;;;;;;;16.85;10.23;;;;;;;;;;5074855;28;20377;-53
2022/10/16 11:41:29;;;;;;;15.05;9.90;;;;;;;;;;5073274;28;20056;-51
2022/10/16 11:44:07;;;;;;;16.17;9.80;;;;;;;;;;5070469;28;20044;-53
2022/10/16 11:46:54;;;;;;;17.50;9.95;;;;;;;;;;5073674;28;20086;-54
2022/10/16 11:49:22;;;;;;;18.35;10.90;;;;;;;;;;5072307;28;20164;-54
2022/10/16 11:51:52;;;;;;;20.30;11.52;;;;;;;;;;5071428;28;20477;-51
2022/10/16 11:54:22;;;;;;;17.30;10.73;;;;;;;;;;5068078;28;20056;-53
2022/10/16 11:56:49;;;;;;;17.40;9.25;;;;;;;;;;5073082;28;20114;-51
2022/10/16 11:59:20;;;;;;;19.83;9.32;;;;;;;;;;5075171;28;20048;-51
2022/10/16 12:02:14;;;;;;;15.63;9.77;;;;;;;;;;5074628;28;20056;-54
2022/10/16 12:04:45;;;;;;;15.68;9.80;;;;;;;;;;5075215;28;20455;-50
2022/10/16 12:07:22;;;;;;;14.57;9.75;;;;;;;;;;5072068;28;20473;-50
2022/10/16 12:09:52;;;;;;;15.32;8.95;;;;;;;;;;5069829;28;20059;-51
2022/10/16 12:12:38;;;;;;;13.35;9.45;;;;;;;;;;5070628;28;20076;-50
2022/10/16 12:15:09;;;;;;;;;;;;;;;;;;5072163;28;20048;-51
2022/10/16 12:17:49;;;;;;;13.80;8.45;;;;;;;;;;5065994;28;19920;-53
2022/10/16 12:20:25;;;;;;;11.07;8.15;;;;;;;;;;5069613;28;20449;-51
2022/10/16 12:22:56;;;;;;;11.88;8.30;;;;;;;;;;5066621;28;20055;-53
2022/10/16 12:25:28;;;;;;;10.98;8.00;;;;;;;;;;5073800;28;20063;-52
2022/10/16 12:28:01;;;;;;;11.13;7.93;;;;;;;;;;5071834;28;20059;-50
2022/10/16 12:30:31;;;;;;;14.63;8.35;;;;;;;;;;5073866;28;20465;-46
2022/10/16 12:33:02;;;;;;;10.00;7.30;;;;;;;;;;5075430;28;20056;-46
2022/10/16 12:35:35;;;;;;;10.30;7.32;;;;;;;;;;5079497;28;20067;-47
2022/10/16 12:38:10;;;;;;;11.98;7.57;;;;;;;;;;5068006;28;20044;-48
2022/10/16 12:40:42;;;;;;;10.43;6.90;;;;;;;;;;5069514;28;20057;-47
2022/10/16 12:43:14;;;;;;;12.52;7.32;;;;;;;;;;5061064;28;20350;-47
2022/10/16 12:45:42;;;;;;;8.88;6.40;;;;;;;;;;5065138;28;20473;-46
2022/10/16 12:48:28;;;;;;;10.85;6.90;;;;;;;;;;5079618;28;20060;-47
2022/10/16 12:51:12;;;;;;;10.38;6.13;;;;;;;;;;5068748;28;20048;-49
2022/10/16 12:53:42;;;;;;;8.38;5.88;;;;;;;;;;5066948;28;20049;-47
2022/10/16 12:56:19;;;;;;;11.85;7.13;;;;;;;;;;5056957;28;20064;-49
2022/10/16 12:58:57;;;;;;;8.93;6.03;;;;;;;;;;5070732;28;20044;-47
2022/10/16 13:01:29;;;;;;;9.77;6.45;;;;;;;;;;5071823;28;20501;-48
2022/10/16 13:04:05;;;;;;;8.98;6.22;;;;;;;;;;5067014;28;20052;-48
2022/10/16 13:06:50;;;;;;;8.10;5.95;;;;;;;;;;5061257;28;20056;-47
2022/10/16 13:09:49;;;;;;;8.88;6.35;;;;;;;;;;5072751;28;20456;-47
2022/10/16 13:12:35;;;;;;;8.32;6.10;;;;;;;;;;5071712;28;20330;-46
2022/10/16 13:15:15;;;;;;;8.68;6.10;;;;;;;;;;5063685;28;20120;-47
2022/10/16 13:17:49;;;;;;;7.90;5.35;;;;;;;;;;5069937;28;20048;-46
2022/10/16 13:20:31;;;;;;;8.48;5.07;;;;;;;;;;5073328;28;20432;-45
2022/10/16 13:23:06;;;;;;;7.82;4.97;;;;;;;;;;5067544;28;20497;-47
2022/10/16 13:25:41;;;;;;;7.68;4.88;;;;;;;;;;5078515;28;20049;-46
2022/10/16 13:28:09;;;;;;;7.07;5.05;;;;;;;;;;5069939;28;20214;-47
2022/10/16 13:30:40;;;;;;;9.48;5.72;;;;;;;;;;5065554;28;20048;-49
2022/10/16 13:33:08;;;;;;;7.40;4.88;;;;;;;;;;5062630;28;20071;-45
2022/10/16 13:35:36;;;;;;;7.25;5.53;;;;;;;;;;5070941;28;20064;-46
2022/10/16 13:38:13;;;;;;;9.50;6.25;;;;;;;;;;5060424;28;20044;-49
2022/10/16 13:40:57;;;;;;;8.43;5.90;;;;;;;;;;5063091;28;20076;-47
2022/10/16 13:43:26;;;;;;;12.23;6.85;;;;;;;;;;5065691;28;20160;-47
2022/10/16 13:45:54;;;;;;;10.88;6.88;;;;;;;;;;5065159;28;20458;-46
2022/10/16 13:48:24;;;;;;;9.60;6.53;;;;;;;;;;5072443;28;20061;-47
2022/10/16 13:51:04;;;;;;;10.07;6.85;;;;;;;;;;5073767;28;20127;-46
2022/10/16 13:53:33;;;;;;;8.52;5.60;;;;;;;;;;5063905;28;20068;-46
2022/10/16 13:56:09;;;;;;;9.50;6.38;;;;;;;;;;5067288;28;20060;-47
2022/10/16 13:58:39;;;;;;;7.95;5.88;;;;;;;;;;5069563;28;20064;-46
2022/10/16 14:01:06;;;;;;;8.43;5.85;;;;;;;;;;5074287;28;20072;-47
2022/10/16 14:03:35;;;;;;;7.18;5.95;;;;;;;;;;5067009;28;20055;-46
2022/10/16 14:06:13;;;;;;;10.32;5.43;;;;;;;;;;5065008;28;20109;-46
2022/10/16 14:08:52;;;;;;;8.52;4.93;;;;;;;;;;5069210;28;20052;-45
2022/10/16 14:11:37;;;;;;;9.48;5.63;;;;;;;;;;5064089;28;20774;-50
2022/10/16 14:14:06;;;;;;;8.83;5.70;;;;;;;;;;5071857;28;20135;-46
2022/10/16 14:16:36;;;;;;;8.40;5.75;;;;;;;;;;5080727;28;20360;-46
2022/10/16 14:19:06;;;;;;;11.90;6.25;;;;;;;;;;5067085;28;20060;-46
2022/10/16 14:21:36;;;;;;;9.32;6.40;;;;;;;;;;5064381;28;20061;-47
2022/10/16 14:24:13;;;;;;;8.93;5.90;;;;;;;;;;5062334;28;20369;-46
2022/10/16 14:26:48;;;;;;;9.57;6.10;;;;;;;;;;5063973;28;20049;-47
2022/10/16 14:29:19;;;;;;;;;;;;;;;;;;5060347;28;20133;-46
2022/10/16 14:31:58;;;;;;;7.05;5.40;;;;;;;;;;5059215;28;20000;-47
2022/10/16 14:34:30;;;;;;;9.20;6.95;;;;;;;;;;5065633;28;20051;-45
2022/10/16 14:37:07;;;;;;;10.98;7.72;;;;;;;;;;5054391;28;20053;-48
2022/10/16 14:39:35;;;;;;;11.50;6.82;;;;;;;;;;5070249;28;20070;-47
2022/10/16 14:42:04;;;;;;;10.40;7.50;;;;;;;;;;5077845;28;20058;-47
2022/10/16 14:44:42;;;;;;;11.32;6.50;;;;;;;;;;5066108;28;20055;-50
2022/10/16 14:49:54;;;;;;;9.18;6.85;;;;;;;;;;5064375;28;20051;-48
2022/10/16 14:52:30;;;;;;;9.40;6.72;;;;;;;;;;5066277;28;20401;-48
2022/10/16 14:55:00;;;;;;;13.00;7.45;;;;;;;;;;5073703;28;20166;-47
2022/10/16 14:57:46;;;;;;;13.35;8.23;;;;;;;;;;5065127;28;20041;-46
2022/10/16 15:00:19;;;;;;;9.27;6.18;;;;;;;;;;5072244;28;20122;-48